sensor_id;sensor_type;location;lat;lon;timestamp;temperature;humidity
14487;DHT22;7329;50.866;4.366;2022-09-09T00:00:11;23.10;99.90
14487;DHT22;7329;50.866;4.366;2022-09-09T00:02:18;23.10;99.90
14487;DHT22;7329;50.866;4.366;2022-09-09T00:04:26;23.10;99.90
14487;DHT22;7329;50.866;4.366;2022-09-09T00:06:31;23.10;99.90
14487;DHT22;7329;50.866;4.366;2022-09-09T00:08:45;23.10;99.90
14487;DHT22;7329;50.866;4.366;2022-09-09T00:10:56;23.10;99.90
14487;DHT22;7329;50.866;4.366;2022-09-09T00:13:10;23.10;99.90
14487;DHT22;7329;50.866;4.366;2022-09-09T00:15:19;23.10;99.90
14487;DHT22;7329;50.866;4.366;2022-09-09T00:17:33;23.10;99.90
14487;DHT22;7329;50.866;4.366;2022-09-09T00:19:41;23.10;99.90
14487;DHT22;7329;50.866;4.366;2022-09-09T00:21:52;23.10;99.90
14487;DHT22;7329;50.866;4.366;2022-09-09T00:23:58;23.10;99.90
14487;DHT22;7329;50.866;4.366;2022-09-09T00:26:06;23.10;99.90
14487;DHT22;7329;50.866;4.366;2022-09-09T00:28:18;23.10;99.90
14487;DHT22;7329;50.866;4.366;2022-09-09T00:30:22;23.10;99.90
14487;DHT22;7329;50.866;4.366;2022-09-09T00:32:28;23.00;99.90
14487;DHT22;7329;50.866;4.366;2022-09-09T00:34:32;23.00;99.90
14487;DHT22;7329;50.866;4.366;2022-09-09T00:36:36;23.10;99.90
14487;DHT22;7329;50.866;4.366;2022-09-09T00:38:42;23.00;99.90
14487;DHT22;7329;50.866;4.366;2022-09-09T00:40:50;23.00;99.90
14487;DHT22;7329;50.866;4.366;2022-09-09T00:43:04;23.00;99.90
14487;DHT22;7329;50.866;4.366;2022-09-09T00:45:25;23.00;99.90
14487;DHT22;7329;50.866;4.366;2022-09-09T00:47:40;23.00;99.90
14487;DHT22;7329;50.866;4.366;2022-09-09T00:49:56;23.00;99.90
14487;DHT22;7329;50.866;4.366;2022-09-09T00:52:08;23.00;99.90
14487;DHT22;7329;50.866;4.366;2022-09-09T00:54:35;23.00;99.90
14487;DHT22;7329;50.866;4.366;2022-09-09T00:56:45;23.00;99.90
14487;DHT22;7329;50.866;4.366;2022-09-09T00:58:52;23.00;99.90
14487;DHT22;7329;50.866;4.366;2022-09-09T01:01:04;23.00;99.90
14487;DHT22;7329;50.866;4.366;2022-09-09T01:03:21;22.90;99.90
14487;DHT22;7329;50.866;4.366;2022-09-09T01:05:33;23.00;99.90
14487;DHT22;7329;50.866;4.366;2022-09-09T01:07:38;23.00;99.90
14487;DHT22;7329;50.866;4.366;2022-09-09T01:09:50;23.00;99.90
14487;DHT22;7329;50.866;4.366;2022-09-09T01:11:59;23.00;99.90
14487;DHT22;7329;50.866;4.366;2022-09-09T01:14:13;23.00;99.90
14487;DHT22;7329;50.866;4.366;2022-09-09T01:16:17;23.00;99.90
14487;DHT22;7329;50.866;4.366;2022-09-09T01:18:22;23.00;99.90
14487;DHT22;7329;50.866;4.366;2022-09-09T01:20:31;23.00;99.90
14487;DHT22;7329;50.866;4.366;2022-09-09T01:22:43;23.00;99.90
14487;DHT22;7329;50.866;4.366;2022-09-09T01:25:01;23.00;99.90
14487;DHT22;7329;50.866;4.366;2022-09-09T01:27:10;23.00;99.90
14487;DHT22;7329;50.866;4.366;2022-09-09T01:29:15;23.00;99.90
14487;DHT22;7329;50.866;4.366;2022-09-09T01:31:24;22.90;99.90
14487;DHT22;7329;50.866;4.366;2022-09-09T01:33:28;23.00;99.90
14487;DHT22;7329;50.866;4.366;2022-09-09T01:35:39;23.00;99.90
14487;DHT22;7329;50.866;4.366;2022-09-09T01:37:44;23.00;99.90
14487;DHT22;7329;50.866;4.366;2022-09-09T01:39:46;22.90;99.90
14487;DHT22;7329;50.866;4.366;2022-09-09T01:41:49;22.90;99.90
14487;DHT22;7329;50.866;4.366;2022-09-09T01:43:57;22.90;99.90
14487;DHT22;7329;50.866;4.366;2022-09-09T01:46:01;22.90;99.90
14487;DHT22;7329;50.866;4.366;2022-09-09T01:48:04;23.00;99.90
14487;DHT22;7329;50.866;4.366;2022-09-09T01:50:07;23.00;99.90
14487;DHT22;7329;50.866;4.366;2022-09-09T01:52:10;23.00;99.90
14487;DHT22;7329;50.866;4.366;2022-09-09T01:54:12;22.90;99.90
14487;DHT22;7329;50.866;4.366;2022-09-09T01:56:26;22.90;99.90
14487;DHT22;7329;50.866;4.366;2022-09-09T01:58:36;22.90;99.90
14487;DHT22;7329;50.866;4.366;2022-09-09T02:00:44;22.90;99.90
14487;DHT22;7329;50.866;4.366;2022-09-09T02:02:58;22.90;99.90
14487;DHT22;7329;50.866;4.366;2022-09-09T02:05:12;22.90;99.90
14487;DHT22;7329;50.866;4.366;2022-09-09T02:07:31;23.00;99.90
14487;DHT22;7329;50.866;4.366;2022-09-09T02:09:40;22.90;99.90
14487;DHT22;7329;50.866;4.366;2022-09-09T02:11:45;22.90;99.90
14487;DHT22;7329;50.866;4.366;2022-09-09T02:13:51;22.90;99.90
14487;DHT22;7329;50.866;4.366;2022-09-09T02:16:00;22.90;99.90
14487;DHT22;7329;50.866;4.366;2022-09-09T02:18:06;22.90;99.90
14487;DHT22;7329;50.866;4.366;2022-09-09T02:20:12;22.90;99.90
14487;DHT22;7329;50.866;4.366;2022-09-09T02:22:16;22.90;99.90
14487;DHT22;7329;50.866;4.366;2022-09-09T02:24:20;22.90;99.90
14487;DHT22;7329;50.866;4.366;2022-09-09T02:26:24;22.90;99.90
14487;DHT22;7329;50.866;4.366;2022-09-09T02:28:30;22.90;99.90
14487;DHT22;7329;50.866;4.366;2022-09-09T02:30:35;22.90;99.90
14487;DHT22;7329;50.866;4.366;2022-09-09T02:32:40;22.90;99.90
14487;DHT22;7329;50.866;4.366;2022-09-09T02:34:45;22.90;99.90
14487;DHT22;7329;50.866;4.366;2022-09-09T02:36:50;22.90;99.90
14487;DHT22;7329;50.866;4.366;2022-09-09T02:38:56;22.90;99.90
14487;DHT22;7329;50.866;4.366;2022-09-09T02:40:59;22.90;99.90
14487;DHT22;7329;50.866;4.366;2022-09-09T02:43:01;22.90;99.90
14487;DHT22;7329;50.866;4.366;2022-09-09T02:45:05;22.90;99.90
14487;DHT22;7329;50.866;4.366;2022-09-09T02:47:26;22.90;99.90
14487;DHT22;7329;50.866;4.366;2022-09-09T02:49:40;22.90;99.90
14487;DHT22;7329;50.866;4.366;2022-09-09T02:51:52;22.90;99.90
14487;DHT22;7329;50.866;4.366;2022-09-09T02:54:04;22.90;99.90
14487;DHT22;7329;50.866;4.366;2022-09-09T02:56:16;22.90;99.90
14487;DHT22;7329;50.866;4.366;2022-09-09T02:58:19;22.90;99.90
14487;DHT22;7329;50.866;4.366;2022-09-09T03:00:25;22.90;99.90
14487;DHT22;7329;50.866;4.366;2022-09-09T03:02:28;22.80;99.90
14487;DHT22;7329;50.866;4.366;2022-09-09T03:04:32;22.80;99.90
14487;DHT22;7329;50.866;4.366;2022-09-09T03:06:35;22.80;99.90
14487;DHT22;7329;50.866;4.366;2022-09-09T03:08:37;22.80;99.90
14487;DHT22;7329;50.866;4.366;2022-09-09T03:10:39;22.80;99.90
14487;DHT22;7329;50.866;4.366;2022-09-09T03:12:42;22.80;99.90
14487;DHT22;7329;50.866;4.366;2022-09-09T03:14:44;22.80;99.90
14487;DHT22;7329;50.866;4.366;2022-09-09T03:16:47;22.80;99.90
14487;DHT22;7329;50.866;4.366;2022-09-09T03:18:50;22.80;99.90
14487;DHT22;7329;50.866;4.366;2022-09-09T03:20:54;22.80;99.90
14487;DHT22;7329;50.866;4.366;2022-09-09T03:22:57;22.80;99.90
14487;DHT22;7329;50.866;4.366;2022-09-09T03:24:59;22.80;99.90
14487;DHT22;7329;50.866;4.366;2022-09-09T03:27:01;22.90;99.90
14487;DHT22;7329;50.866;4.366;2022-09-09T03:29:04;22.80;99.90
14487;DHT22;7329;50.866;4.366;2022-09-09T03:31:07;22.90;99.90
14487;DHT22;7329;50.866;4.366;2022-09-09T03:33:11;22.80;99.90
14487;DHT22;7329;50.866;4.366;2022-09-09T03:35:13;22.90;99.90
14487;DHT22;7329;50.866;4.366;2022-09-09T03:37:17;22.80;99.90
14487;DHT22;7329;50.866;4.366;2022-09-09T03:39:20;22.80;99.90
14487;DHT22;7329;50.866;4.366;2022-09-09T03:41:22;22.80;99.90
14487;DHT22;7329;50.866;4.366;2022-09-09T03:43:26;22.80;99.90
14487;DHT22;7329;50.866;4.366;2022-09-09T03:45:29;22.80;99.90
14487;DHT22;7329;50.866;4.366;2022-09-09T03:47:31;22.80;99.90
14487;DHT22;7329;50.866;4.366;2022-09-09T03:49:34;22.80;99.90
14487;DHT22;7329;50.866;4.366;2022-09-09T03:51:36;22.80;99.90
14487;DHT22;7329;50.866;4.366;2022-09-09T03:53:40;22.80;99.90
14487;DHT22;7329;50.866;4.366;2022-09-09T03:55:44;22.80;99.90
14487;DHT22;7329;50.866;4.366;2022-09-09T03:57:46;22.80;99.90
14487;DHT22;7329;50.866;4.366;2022-09-09T03:59:48;22.80;99.90
14487;DHT22;7329;50.866;4.366;2022-09-09T04:01:51;22.80;99.90
14487;DHT22;7329;50.866;4.366;2022-09-09T04:03:53;22.80;99.90
14487;DHT22;7329;50.866;4.366;2022-09-09T04:06:00;22.80;99.90
14487;DHT22;7329;50.866;4.366;2022-09-09T04:08:02;22.80;99.90
14487;DHT22;7329;50.866;4.366;2022-09-09T04:10:08;22.80;99.90
14487;DHT22;7329;50.866;4.366;2022-09-09T04:12:10;22.80;99.90
14487;DHT22;7329;50.866;4.366;2022-09-09T04:14:14;22.80;99.90
14487;DHT22;7329;50.866;4.366;2022-09-09T04:16:16;22.80;99.90
14487;DHT22;7329;50.866;4.366;2022-09-09T04:18:19;22.70;99.90
14487;DHT22;7329;50.866;4.366;2022-09-09T04:20:21;22.80;99.90
14487;DHT22;7329;50.866;4.366;2022-09-09T04:22:24;22.80;99.90
14487;DHT22;7329;50.866;4.366;2022-09-09T04:24:26;22.80;99.90
14487;DHT22;7329;50.866;4.366;2022-09-09T04:26:31;22.80;99.90
14487;DHT22;7329;50.866;4.366;2022-09-09T04:28:35;22.80;99.90
14487;DHT22;7329;50.866;4.366;2022-09-09T04:30:37;22.70;99.90
14487;DHT22;7329;50.866;4.366;2022-09-09T04:32:40;22.80;99.90
14487;DHT22;7329;50.866;4.366;2022-09-09T04:34:43;22.80;99.90
14487;DHT22;7329;50.866;4.366;2022-09-09T04:36:45;22.80;99.90
14487;DHT22;7329;50.866;4.366;2022-09-09T04:38:48;22.70;99.90
14487;DHT22;7329;50.866;4.366;2022-09-09T04:40:51;22.70;99.90
14487;DHT22;7329;50.866;4.366;2022-09-09T04:42:57;22.70;99.90
14487;DHT22;7329;50.866;4.366;2022-09-09T04:45:01;22.70;99.90
14487;DHT22;7329;50.866;4.366;2022-09-09T04:47:04;22.70;99.90
14487;DHT22;7329;50.866;4.366;2022-09-09T04:49:06;22.70;99.90
14487;DHT22;7329;50.866;4.366;2022-09-09T04:51:11;22.70;99.90
14487;DHT22;7329;50.866;4.366;2022-09-09T04:53:13;22.70;99.90
14487;DHT22;7329;50.866;4.366;2022-09-09T04:55:16;22.70;99.90
14487;DHT22;7329;50.866;4.366;2022-09-09T04:57:18;22.70;99.90
14487;DHT22;7329;50.866;4.366;2022-09-09T04:59:22;22.70;99.90
14487;DHT22;7329;50.866;4.366;2022-09-09T05:01:24;22.70;99.90
14487;DHT22;7329;50.866;4.366;2022-09-09T05:03:28;22.70;99.90
14487;DHT22;7329;50.866;4.366;2022-09-09T05:05:30;22.70;99.90
14487;DHT22;7329;50.866;4.366;2022-09-09T05:07:33;22.70;99.90
14487;DHT22;7329;50.866;4.366;2022-09-09T05:09:35;22.70;99.90
14487;DHT22;7329;50.866;4.366;2022-09-09T05:11:37;22.70;99.90
14487;DHT22;7329;50.866;4.366;2022-09-09T05:13:40;22.70;99.90
14487;DHT22;7329;50.866;4.366;2022-09-09T05:15:51;22.70;99.90
14487;DHT22;7329;50.866;4.366;2022-09-09T05:17:57;22.70;99.90
14487;DHT22;7329;50.866;4.366;2022-09-09T05:20:00;22.70;99.90
14487;DHT22;7329;50.866;4.366;2022-09-09T05:22:04;22.70;99.90
14487;DHT22;7329;50.866;4.366;2022-09-09T05:24:06;22.60;99.90
14487;DHT22;7329;50.866;4.366;2022-09-09T05:26:12;22.70;99.90
14487;DHT22;7329;50.866;4.366;2022-09-09T05:28:14;22.70;99.90
14487;DHT22;7329;50.866;4.366;2022-09-09T05:30:17;22.70;99.90
14487;DHT22;7329;50.866;4.366;2022-09-09T05:32:21;22.70;99.90
14487;DHT22;7329;50.866;4.366;2022-09-09T05:34:23;22.70;99.90
14487;DHT22;7329;50.866;4.366;2022-09-09T05:36:26;22.70;99.90
14487;DHT22;7329;50.866;4.366;2022-09-09T05:38:28;22.70;99.90
14487;DHT22;7329;50.866;4.366;2022-09-09T05:40:31;22.70;99.90
14487;DHT22;7329;50.866;4.366;2022-09-09T05:42:33;22.70;99.90
14487;DHT22;7329;50.866;4.366;2022-09-09T05:44:35;22.70;99.90
14487;DHT22;7329;50.866;4.366;2022-09-09T05:46:38;22.70;99.90
14487;DHT22;7329;50.866;4.366;2022-09-09T05:48:43;22.70;99.90
14487;DHT22;7329;50.866;4.366;2022-09-09T05:50:54;22.60;99.90
14487;DHT22;7329;50.866;4.366;2022-09-09T05:52:57;22.70;99.90
14487;DHT22;7329;50.866;4.366;2022-09-09T05:55:00;22.60;99.90
14487;DHT22;7329;50.866;4.366;2022-09-09T05:57:02;22.70;99.90
14487;DHT22;7329;50.866;4.366;2022-09-09T05:59:05;22.70;99.90
14487;DHT22;7329;50.866;4.366;2022-09-09T06:01:09;22.60;99.90
14487;DHT22;7329;50.866;4.366;2022-09-09T06:03:12;22.70;99.90
14487;DHT22;7329;50.866;4.366;2022-09-09T06:05:16;22.70;99.90
14487;DHT22;7329;50.866;4.366;2022-09-09T06:07:18;22.70;99.90
14487;DHT22;7329;50.866;4.366;2022-09-09T06:09:21;22.60;99.90
14487;DHT22;7329;50.866;4.366;2022-09-09T06:11:25;22.70;99.90
14487;DHT22;7329;50.866;4.366;2022-09-09T06:13:28;22.70;99.90
14487;DHT22;7329;50.866;4.366;2022-09-09T06:15:30;22.70;99.90
14487;DHT22;7329;50.866;4.366;2022-09-09T06:17:33;22.70;99.90
14487;DHT22;7329;50.866;4.366;2022-09-09T06:19:35;22.70;99.90
14487;DHT22;7329;50.866;4.366;2022-09-09T06:21:39;22.70;99.90
14487;DHT22;7329;50.866;4.366;2022-09-09T06:23:42;22.70;99.90
14487;DHT22;7329;50.866;4.366;2022-09-09T06:25:45;22.70;99.90
14487;DHT22;7329;50.866;4.366;2022-09-09T06:27:48;22.70;99.90
14487;DHT22;7329;50.866;4.366;2022-09-09T06:29:51;22.70;99.90
14487;DHT22;7329;50.866;4.366;2022-09-09T06:31:54;22.70;99.90
14487;DHT22;7329;50.866;4.366;2022-09-09T06:33:57;22.70;99.90
14487;DHT22;7329;50.866;4.366;2022-09-09T06:36:01;22.70;99.90
14487;DHT22;7329;50.866;4.366;2022-09-09T06:38:05;22.70;99.90
14487;DHT22;7329;50.866;4.366;2022-09-09T06:40:10;22.70;99.90
14487;DHT22;7329;50.866;4.366;2022-09-09T06:42:12;22.70;99.90
14487;DHT22;7329;50.866;4.366;2022-09-09T06:44:16;22.70;99.90
14487;DHT22;7329;50.866;4.366;2022-09-09T06:46:19;22.70;99.90
14487;DHT22;7329;50.866;4.366;2022-09-09T06:48:22;22.70;99.90
14487;DHT22;7329;50.866;4.366;2022-09-09T06:50:26;22.70;99.90
14487;DHT22;7329;50.866;4.366;2022-09-09T06:52:29;22.70;99.90
14487;DHT22;7329;50.866;4.366;2022-09-09T06:54:32;22.70;99.90
14487;DHT22;7329;50.866;4.366;2022-09-09T06:56:39;22.70;99.90
14487;DHT22;7329;50.866;4.366;2022-09-09T06:58:43;22.70;99.90
14487;DHT22;7329;50.866;4.366;2022-09-09T07:00:46;22.70;99.90
14487;DHT22;7329;50.866;4.366;2022-09-09T07:02:48;22.70;99.90
14487;DHT22;7329;50.866;4.366;2022-09-09T07:04:52;22.60;99.90
14487;DHT22;7329;50.866;4.366;2022-09-09T07:06:54;22.50;99.90
14487;DHT22;7329;50.866;4.366;2022-09-09T07:08:59;22.30;99.90
14487;DHT22;7329;50.866;4.366;2022-09-09T07:11:04;22.30;99.90
14487;DHT22;7329;50.866;4.366;2022-09-09T07:13:07;22.30;99.90
14487;DHT22;7329;50.866;4.366;2022-09-09T07:15:10;22.20;99.90
14487;DHT22;7329;50.866;4.366;2022-09-09T07:17:14;22.10;99.90
14487;DHT22;7329;50.866;4.366;2022-09-09T07:19:16;22.10;99.90
14487;DHT22;7329;50.866;4.366;2022-09-09T07:21:19;22.20;99.90
14487;DHT22;7329;50.866;4.366;2022-09-09T07:23:21;22.10;99.90
14487;DHT22;7329;50.866;4.366;2022-09-09T07:25:24;22.10;99.90
14487;DHT22;7329;50.866;4.366;2022-09-09T07:27:29;22.20;99.90
14487;DHT22;7329;50.866;4.366;2022-09-09T07:29:31;22.20;99.90
14487;DHT22;7329;50.866;4.366;2022-09-09T07:31:35;22.20;99.90
14487;DHT22;7329;50.866;4.366;2022-09-09T07:33:37;22.40;99.90
14487;DHT22;7329;50.866;4.366;2022-09-09T07:35:39;22.40;99.90
14487;DHT22;7329;50.866;4.366;2022-09-09T07:37:43;22.40;99.90
14487;DHT22;7329;50.866;4.366;2022-09-09T07:39:46;22.40;99.90
14487;DHT22;7329;50.866;4.366;2022-09-09T07:41:48;22.50;99.90
14487;DHT22;7329;50.866;4.366;2022-09-09T07:43:53;22.50;99.90
14487;DHT22;7329;50.866;4.366;2022-09-09T07:45:57;22.50;99.90
14487;DHT22;7329;50.866;4.366;2022-09-09T07:48:00;22.60;99.90
14487;DHT22;7329;50.866;4.366;2022-09-09T07:50:03;22.70;99.90
14487;DHT22;7329;50.866;4.366;2022-09-09T07:52:05;22.70;99.90
14487;DHT22;7329;50.866;4.366;2022-09-09T07:54:09;22.70;99.90
14487;DHT22;7329;50.866;4.366;2022-09-09T07:56:13;22.70;99.90
14487;DHT22;7329;50.866;4.366;2022-09-09T07:58:17;22.70;99.90
14487;DHT22;7329;50.866;4.366;2022-09-09T08:00:21;22.80;99.90
14487;DHT22;7329;50.866;4.366;2022-09-09T08:02:24;22.80;99.90
14487;DHT22;7329;50.866;4.366;2022-09-09T08:04:30;22.70;99.90
14487;DHT22;7329;50.866;4.366;2022-09-09T08:06:35;22.70;99.90
14487;DHT22;7329;50.866;4.366;2022-09-09T08:08:38;22.70;99.90
14487;DHT22;7329;50.866;4.366;2022-09-09T08:10:42;22.80;99.90
14487;DHT22;7329;50.866;4.366;2022-09-09T08:12:44;22.80;99.90
14487;DHT22;7329;50.866;4.366;2022-09-09T08:14:47;22.80;99.90
14487;DHT22;7329;50.866;4.366;2022-09-09T08:16:51;22.80;99.90
14487;DHT22;7329;50.866;4.366;2022-09-09T08:18:54;22.80;99.90
14487;DHT22;7329;50.866;4.366;2022-09-09T08:20:56;22.80;99.90
14487;DHT22;7329;50.866;4.366;2022-09-09T08:22:59;22.80;99.90
14487;DHT22;7329;50.866;4.366;2022-09-09T08:25:01;22.80;99.90
14487;DHT22;7329;50.866;4.366;2022-09-09T08:27:07;22.80;99.90
14487;DHT22;7329;50.866;4.366;2022-09-09T08:29:14;22.90;99.90
14487;DHT22;7329;50.866;4.366;2022-09-09T08:31:18;22.80;99.90
14487;DHT22;7329;50.866;4.366;2022-09-09T08:33:22;22.90;99.90
14487;DHT22;7329;50.866;4.366;2022-09-09T08:35:26;22.90;99.90
14487;DHT22;7329;50.866;4.366;2022-09-09T08:37:28;22.90;99.90
14487;DHT22;7329;50.866;4.366;2022-09-09T08:39:31;22.90;99.90
14487;DHT22;7329;50.866;4.366;2022-09-09T08:41:49;22.80;99.90
14487;DHT22;7329;50.866;4.366;2022-09-09T08:44:03;22.80;99.90
14487;DHT22;7329;50.866;4.366;2022-09-09T08:46:10;22.80;99.90
14487;DHT22;7329;50.866;4.366;2022-09-09T08:48:21;22.80;99.90
14487;DHT22;7329;50.866;4.366;2022-09-09T08:50:29;22.90;99.90
14487;DHT22;7329;50.866;4.366;2022-09-09T08:52:39;22.90;99.90
14487;DHT22;7329;50.866;4.366;2022-09-09T08:54:41;23.00;99.90
14487;DHT22;7329;50.866;4.366;2022-09-09T08:56:44;23.00;99.90
14487;DHT22;7329;50.866;4.366;2022-09-09T08:58:48;23.00;99.90
14487;DHT22;7329;50.866;4.366;2022-09-09T09:01:01;22.90;99.90
14487;DHT22;7329;50.866;4.366;2022-09-09T09:03:15;23.00;99.90
14487;DHT22;7329;50.866;4.366;2022-09-09T09:05:28;23.00;99.90
14487;DHT22;7329;50.866;4.366;2022-09-09T09:07:43;23.00;99.90
14487;DHT22;7329;50.866;4.366;2022-09-09T09:09:59;23.00;99.90
14487;DHT22;7329;50.866;4.366;2022-09-09T09:12:11;23.00;99.90
14487;DHT22;7329;50.866;4.366;2022-09-09T09:14:19;22.90;99.90
14487;DHT22;7329;50.866;4.366;2022-09-09T09:16:29;22.90;99.90
14487;DHT22;7329;50.866;4.366;2022-09-09T09:18:33;22.90;99.90
14487;DHT22;7329;50.866;4.366;2022-09-09T09:20:47;22.90;99.90
14487;DHT22;7329;50.866;4.366;2022-09-09T09:22:54;22.90;99.90
14487;DHT22;7329;50.866;4.366;2022-09-09T09:25:02;23.00;99.90
14487;DHT22;7329;50.866;4.366;2022-09-09T09:27:13;23.00;99.90
14487;DHT22;7329;50.866;4.366;2022-09-09T09:29:18;23.00;99.90
14487;DHT22;7329;50.866;4.366;2022-09-09T09:31:20;23.00;99.90
14487;DHT22;7329;50.866;4.366;2022-09-09T09:33:27;23.00;99.90
14487;DHT22;7329;50.866;4.366;2022-09-09T09:35:30;23.10;99.90
14487;DHT22;7329;50.866;4.366;2022-09-09T09:37:34;23.10;99.90
14487;DHT22;7329;50.866;4.366;2022-09-09T09:39:37;23.00;99.90
14487;DHT22;7329;50.866;4.366;2022-09-09T09:41:41;23.00;99.90
14487;DHT22;7329;50.866;4.366;2022-09-09T09:43:53;23.00;99.90
14487;DHT22;7329;50.866;4.366;2022-09-09T09:45:56;23.10;99.90
14487;DHT22;7329;50.866;4.366;2022-09-09T09:48:00;23.00;99.90
14487;DHT22;7329;50.866;4.366;2022-09-09T09:50:03;23.10;99.90
14487;DHT22;7329;50.866;4.366;2022-09-09T09:52:20;23.10;99.90
14487;DHT22;7329;50.866;4.366;2022-09-09T09:54:28;23.10;99.90
14487;DHT22;7329;50.866;4.366;2022-09-09T09:56:31;23.10;99.90
14487;DHT22;7329;50.866;4.366;2022-09-09T09:58:38;23.10;99.90
14487;DHT22;7329;50.866;4.366;2022-09-09T10:00:47;23.00;99.90
14487;DHT22;7329;50.866;4.366;2022-09-09T10:02:50;23.10;99.90
14487;DHT22;7329;50.866;4.366;2022-09-09T10:05:04;23.10;99.90
14487;DHT22;7329;50.866;4.366;2022-09-09T10:07:12;23.10;99.90
14487;DHT22;7329;50.866;4.366;2022-09-09T10:09:22;23.10;99.90
14487;DHT22;7329;50.866;4.366;2022-09-09T10:11:35;23.10;99.90
14487;DHT22;7329;50.866;4.366;2022-09-09T10:13:48;23.20;99.90
14487;DHT22;7329;50.866;4.366;2022-09-09T10:16:06;23.20;99.90
14487;DHT22;7329;50.866;4.366;2022-09-09T10:18:22;23.20;99.90
14487;DHT22;7329;50.866;4.366;2022-09-09T10:20:32;23.20;99.90
14487;DHT22;7329;50.866;4.366;2022-09-09T10:22:39;23.20;99.90
14487;DHT22;7329;50.866;4.366;2022-09-09T10:27:38;23.30;99.90
14487;DHT22;7329;50.866;4.366;2022-09-09T10:30:00;23.30;99.90
14487;DHT22;7329;50.866;4.366;2022-09-09T10:32:19;23.30;99.90
14487;DHT22;7329;50.866;4.366;2022-09-09T10:34:41;23.40;99.90
14487;DHT22;7329;50.866;4.366;2022-09-09T10:36:49;23.40;99.90
14487;DHT22;7329;50.866;4.366;2022-09-09T10:38:54;23.40;99.90
14487;DHT22;7329;50.866;4.366;2022-09-09T10:41:18;23.40;99.90
14487;DHT22;7329;50.866;4.366;2022-09-09T10:43:32;23.50;99.90
14487;DHT22;7329;50.866;4.366;2022-09-09T10:45:49;23.50;99.90
14487;DHT22;7329;50.866;4.366;2022-09-09T10:48:16;23.50;99.90
14487;DHT22;7329;50.866;4.366;2022-09-09T10:52:59;23.40;99.90
14487;DHT22;7329;50.866;4.366;2022-09-09T10:55:10;23.50;99.90
14487;DHT22;7329;50.866;4.366;2022-09-09T10:57:24;23.50;99.90
14487;DHT22;7329;50.866;4.366;2022-09-09T10:59:35;23.50;99.90
14487;DHT22;7329;50.866;4.366;2022-09-09T11:01:43;23.50;99.90
14487;DHT22;7329;50.866;4.366;2022-09-09T11:03:52;23.60;99.90
14487;DHT22;7329;50.866;4.366;2022-09-09T11:05:59;23.60;99.90
14487;DHT22;7329;50.866;4.366;2022-09-09T11:08:05;23.70;99.90
14487;DHT22;7329;50.866;4.366;2022-09-09T11:10:19;23.60;99.90
14487;DHT22;7329;50.866;4.366;2022-09-09T11:12:23;23.70;99.90
14487;DHT22;7329;50.866;4.366;2022-09-09T11:14:33;23.60;99.90
14487;DHT22;7329;50.866;4.366;2022-09-09T11:16:41;23.60;99.90
14487;DHT22;7329;50.866;4.366;2022-09-09T11:18:46;23.70;99.90
14487;DHT22;7329;50.866;4.366;2022-09-09T11:20:54;23.60;99.90
14487;DHT22;7329;50.866;4.366;2022-09-09T11:23:02;23.70;99.90
14487;DHT22;7329;50.866;4.366;2022-09-09T11:25:10;23.70;99.90
14487;DHT22;7329;50.866;4.366;2022-09-09T11:27:20;23.70;99.90
14487;DHT22;7329;50.866;4.366;2022-09-09T11:29:53;23.60;99.90
14487;DHT22;7329;50.866;4.366;2022-09-09T11:32:12;23.60;99.90
14487;DHT22;7329;50.866;4.366;2022-09-09T11:34:33;23.60;99.90
14487;DHT22;7329;50.866;4.366;2022-09-09T11:37:00;23.60;99.90
14487;DHT22;7329;50.866;4.366;2022-09-09T11:41:34;23.50;99.90
14487;DHT22;7329;50.866;4.366;2022-09-09T11:43:40;23.50;99.90
14487;DHT22;7329;50.866;4.366;2022-09-09T11:45:51;23.50;99.90
14487;DHT22;7329;50.866;4.366;2022-09-09T11:47:55;23.40;99.90
14487;DHT22;7329;50.866;4.366;2022-09-09T11:50:09;23.40;99.90
14487;DHT22;7329;50.866;4.366;2022-09-09T11:52:18;23.40;99.90
14487;DHT22;7329;50.866;4.366;2022-09-09T11:54:29;23.40;99.90
14487;DHT22;7329;50.866;4.366;2022-09-09T11:56:32;23.40;99.90
14487;DHT22;7329;50.866;4.366;2022-09-09T11:58:41;23.50;99.90
14487;DHT22;7329;50.866;4.366;2022-09-09T12:00:47;23.40;99.90
14487;DHT22;7329;50.866;4.366;2022-09-09T12:02:50;23.50;99.90
14487;DHT22;7329;50.866;4.366;2022-09-09T12:04:59;23.50;99.90
14487;DHT22;7329;50.866;4.366;2022-09-09T12:07:05;23.50;99.90
14487;DHT22;7329;50.866;4.366;2022-09-09T12:09:32;23.40;99.90
14487;DHT22;7329;50.866;4.366;2022-09-09T12:11:35;23.40;99.90
14487;DHT22;7329;50.866;4.366;2022-09-09T12:13:38;23.30;99.90
14487;DHT22;7329;50.866;4.366;2022-09-09T12:15:48;23.40;99.90
14487;DHT22;7329;50.866;4.366;2022-09-09T12:17:52;23.40;99.90
14487;DHT22;7329;50.866;4.366;2022-09-09T12:20:06;23.50;99.90
14487;DHT22;7329;50.866;4.366;2022-09-09T12:22:18;23.50;99.90
14487;DHT22;7329;50.866;4.366;2022-09-09T12:24:30;23.50;99.90
14487;DHT22;7329;50.866;4.366;2022-09-09T12:26:37;23.50;99.90
14487;DHT22;7329;50.866;4.366;2022-09-09T12:28:50;23.50;99.90
14487;DHT22;7329;50.866;4.366;2022-09-09T12:31:00;23.50;99.90
14487;DHT22;7329;50.866;4.366;2022-09-09T12:33:10;23.50;99.90
14487;DHT22;7329;50.866;4.366;2022-09-09T12:35:20;23.50;99.90
14487;DHT22;7329;50.866;4.366;2022-09-09T12:37:29;23.50;99.90
14487;DHT22;7329;50.866;4.366;2022-09-09T12:39:36;23.60;99.90
14487;DHT22;7329;50.866;4.366;2022-09-09T12:41:40;23.60;99.90
14487;DHT22;7329;50.866;4.366;2022-09-09T12:43:42;23.70;99.90
14487;DHT22;7329;50.866;4.366;2022-09-09T12:45:44;23.70;99.90
14487;DHT22;7329;50.866;4.366;2022-09-09T12:47:50;23.70;99.90
14487;DHT22;7329;50.866;4.366;2022-09-09T12:49:53;23.80;99.90
14487;DHT22;7329;50.866;4.366;2022-09-09T12:51:57;23.80;99.90
14487;DHT22;7329;50.866;4.366;2022-09-09T12:54:00;23.70;99.90
14487;DHT22;7329;50.866;4.366;2022-09-09T12:56:05;23.80;99.90
14487;DHT22;7329;50.866;4.366;2022-09-09T12:58:13;23.70;99.90
14487;DHT22;7329;50.866;4.366;2022-09-09T13:00:20;23.70;99.90
14487;DHT22;7329;50.866;4.366;2022-09-09T13:02:25;23.80;99.90
14487;DHT22;7329;50.866;4.366;2022-09-09T13:04:30;23.80;99.90
14487;DHT22;7329;50.866;4.366;2022-09-09T13:06:32;23.80;99.90
14487;DHT22;7329;50.866;4.366;2022-09-09T13:08:35;23.80;99.90
14487;DHT22;7329;50.866;4.366;2022-09-09T13:10:41;23.80;99.90
14487;DHT22;7329;50.866;4.366;2022-09-09T13:12:46;23.80;99.90
14487;DHT22;7329;50.866;4.366;2022-09-09T13:14:50;23.90;99.90
14487;DHT22;7329;50.866;4.366;2022-09-09T13:16:56;23.90;99.90
14487;DHT22;7329;50.866;4.366;2022-09-09T13:19:01;23.90;99.90
14487;DHT22;7329;50.866;4.366;2022-09-09T13:21:05;23.90;99.90
14487;DHT22;7329;50.866;4.366;2022-09-09T13:23:11;23.90;99.90
14487;DHT22;7329;50.866;4.366;2022-09-09T13:25:19;24.00;99.90
14487;DHT22;7329;50.866;4.366;2022-09-09T13:27:26;24.00;99.90
14487;DHT22;7329;50.866;4.366;2022-09-09T13:29:31;23.90;99.90
14487;DHT22;7329;50.866;4.366;2022-09-09T13:31:36;23.90;99.90
14487;DHT22;7329;50.866;4.366;2022-09-09T13:33:39;23.90;99.90
14487;DHT22;7329;50.866;4.366;2022-09-09T13:35:47;23.80;99.90
14487;DHT22;7329;50.866;4.366;2022-09-09T13:37:51;23.80;99.90